createdAt,value
2023-04-30T00:00:39.698Z,12.92
2023-04-30T00:03:06.363Z,12.40
2023-04-30T00:05:33.019Z,12.36
2023-04-30T00:07:59.589Z,12.06
2023-04-30T00:10:26.113Z,12.87
2023-04-30T00:12:52.718Z,11.09
2023-04-30T00:15:19.358Z,9.77
2023-04-30T00:17:46.079Z,11.02
2023-04-30T00:20:13.170Z,11.52
2023-04-30T00:22:39.695Z,11.10
2023-04-30T00:25:06.615Z,10.44
2023-04-30T00:27:33.142Z,11.84
2023-04-30T00:29:59.644Z,11.35
2023-04-30T00:32:26.368Z,11.72
2023-04-30T00:34:53.167Z,13.41
2023-04-30T00:37:19.782Z,13.65
2023-04-30T00:39:46.357Z,12.60
2023-04-30T00:42:12.887Z,12.32
2023-04-30T00:44:39.479Z,12.47
2023-04-30T00:47:06.133Z,12.36
2023-04-30T00:49:32.776Z,12.55
2023-04-30T00:51:59.411Z,12.74
2023-04-30T00:54:26.020Z,13.06
2023-04-30T00:56:52.681Z,12.82
2023-04-30T00:59:19.293Z,12.68
2023-04-30T01:01:46.017Z,12.87
2023-04-30T01:04:12.762Z,12.60
2023-04-30T01:06:39.618Z,12.77
2023-04-30T01:09:07.022Z,12.80
2023-04-30T01:11:57.321Z,12.15
2023-04-30T01:14:35.956Z,12.01
2023-04-30T01:17:18.684Z,11.50
2023-04-30T01:19:46.316Z,10.77
2023-04-30T01:22:32.360Z,10.63
2023-04-30T01:25:15.277Z,11.32
2023-04-30T01:28:08.235Z,12.25
2023-04-30T01:30:36.501Z,12.27
2023-04-30T01:33:03.887Z,11.74
2023-04-30T01:35:54.687Z,11.96
2023-04-30T01:38:24.371Z,13.24
2023-04-30T01:41:02.780Z,13.48
2023-04-30T01:43:40.033Z,12.51
2023-04-30T01:46:17.935Z,11.94
2023-04-30T01:48:56.151Z,10.95
2023-04-30T01:51:43.036Z,11.72
2023-04-30T01:54:33.636Z,11.51
2023-04-30T01:57:06.837Z,11.27
2023-04-30T01:59:36.396Z,11.77
2023-04-30T02:02:03.443Z,10.83
2023-04-30T02:04:29.973Z,10.87
2023-04-30T02:06:56.614Z,10.88
2023-04-30T02:09:24.152Z,10.80
2023-04-30T02:11:51.328Z,11.94
2023-04-30T02:14:17.916Z,11.85
2023-04-30T02:16:44.466Z,12.14
2023-04-30T02:19:11.461Z,11.52
2023-04-30T02:21:38.057Z,11.58
2023-04-30T02:24:04.919Z,12.16
2023-04-30T02:26:31.460Z,12.33
2023-04-30T02:28:58.280Z,11.45
2023-04-30T02:31:24.856Z,11.38
2023-04-30T02:33:51.462Z,11.24
2023-04-30T02:36:18.030Z,12.33
2023-04-30T02:38:44.614Z,13.09
2023-04-30T02:41:11.199Z,12.94
2023-04-30T02:43:37.781Z,12.27
2023-04-30T02:46:04.443Z,12.91
2023-04-30T02:48:31.256Z,11.26
2023-04-30T02:50:57.758Z,10.62
2023-04-30T02:53:24.314Z,10.73
2023-04-30T02:55:51.219Z,10.16
2023-04-30T02:58:17.737Z,10.19
2023-04-30T03:00:44.226Z,9.09
2023-04-30T03:03:10.953Z,10.40
2023-04-30T03:05:37.751Z,8.95
2023-04-30T03:08:04.299Z,7.34
2023-04-30T03:10:30.931Z,7.74
2023-04-30T03:12:57.851Z,7.82
2023-04-30T03:15:24.431Z,8.17
2023-04-30T03:17:51.799Z,8.49
2023-04-30T03:20:18.429Z,8.50
2023-04-30T03:22:44.972Z,8.31
2023-04-30T03:25:11.651Z,8.28
2023-04-30T03:27:38.314Z,8.15
2023-04-30T03:30:05.738Z,8.41
2023-04-30T03:32:32.313Z,8.63
2023-04-30T03:34:58.873Z,8.70
2023-04-30T03:37:25.380Z,9.03
2023-04-30T03:39:52.054Z,9.07
2023-04-30T03:42:18.685Z,9.75
2023-04-30T03:44:45.267Z,9.82
2023-04-30T03:47:11.908Z,8.89
2023-04-30T03:49:38.416Z,8.61
2023-04-30T03:52:05.517Z,7.33
2023-04-30T03:54:33.772Z,5.88
2023-04-30T03:57:03.752Z,6.71
2023-04-30T03:59:31.733Z,6.83
2023-04-30T04:01:58.358Z,7.01
2023-04-30T04:04:24.967Z,7.11
2023-04-30T04:06:51.506Z,7.71
2023-04-30T04:09:18.000Z,8.09
2023-04-30T04:11:44.702Z,7.87
2023-04-30T04:14:11.220Z,7.82
2023-04-30T04:16:37.889Z,7.86
2023-04-30T04:19:04.563Z,8.04
2023-04-30T04:21:31.605Z,8.17
2023-04-30T04:23:58.170Z,8.68
2023-04-30T04:26:25.559Z,8.43
2023-04-30T04:28:52.780Z,9.07
2023-04-30T04:31:20.687Z,8.70
2023-04-30T04:33:47.301Z,8.32
2023-04-30T04:36:13.809Z,6.46
2023-04-30T04:38:40.966Z,5.93
2023-04-30T04:41:07.555Z,5.72
2023-04-30T04:43:34.117Z,4.88
2023-04-30T04:46:00.933Z,4.49
2023-04-30T04:48:27.552Z,3.83
2023-04-30T04:50:54.077Z,3.85
2023-04-30T04:53:20.639Z,4.14
2023-04-30T04:55:47.244Z,4.57
2023-04-30T04:58:13.790Z,6.00
2023-04-30T05:00:40.394Z,6.64
2023-04-30T05:03:07.040Z,6.32
2023-04-30T05:05:34.363Z,6.56
2023-04-30T05:08:00.966Z,7.09
2023-04-30T05:10:27.533Z,7.74
2023-04-30T05:12:54.131Z,8.00
2023-04-30T05:15:20.807Z,8.04
2023-04-30T05:17:47.391Z,7.59
2023-04-30T05:20:14.071Z,8.05
2023-04-30T05:22:40.674Z,8.51
2023-04-30T05:25:07.542Z,8.69
2023-04-30T05:27:34.172Z,9.45
2023-04-30T05:30:00.903Z,9.46
2023-04-30T05:32:27.956Z,9.83
2023-04-30T05:34:54.742Z,11.13
2023-04-30T05:37:22.633Z,12.01
2023-04-30T05:39:49.260Z,12.59
2023-04-30T05:42:15.781Z,13.25
2023-04-30T05:44:42.350Z,13.22
2023-04-30T05:47:09.064Z,13.36
2023-04-30T05:49:36.338Z,12.64
2023-04-30T05:52:03.635Z,12.93
2023-04-30T05:54:31.027Z,12.41
2023-04-30T05:56:58.118Z,12.53
2023-04-30T05:59:24.666Z,12.38
2023-04-30T06:01:51.920Z,11.90
2023-04-30T06:04:18.584Z,11.90
2023-04-30T06:06:45.345Z,11.99
2023-04-30T06:09:12.124Z,11.92
2023-04-30T06:11:40.409Z,11.25
2023-04-30T06:14:08.366Z,11.17
2023-04-30T06:16:35.123Z,11.14
2023-04-30T06:19:01.770Z,11.96
2023-04-30T06:21:28.341Z,12.32
2023-04-30T06:23:54.927Z,12.56
2023-04-30T06:26:21.544Z,12.21
2023-04-30T06:28:48.379Z,12.88
2023-04-30T06:31:15.036Z,12.23
2023-04-30T06:33:41.789Z,11.40
2023-04-30T06:36:08.357Z,10.46
2023-04-30T06:38:34.927Z,10.65
2023-04-30T06:41:01.622Z,10.31
2023-04-30T06:43:28.143Z,10.93
2023-04-30T06:45:54.800Z,10.48
2023-04-30T06:48:21.432Z,10.32
2023-04-30T06:50:48.014Z,10.35
2023-04-30T06:53:15.450Z,10.17
2023-04-30T06:55:42.949Z,10.36
2023-04-30T06:58:09.580Z,9.89
2023-04-30T07:00:36.169Z,10.25
2023-04-30T07:03:04.454Z,10.01
2023-04-30T07:05:31.609Z,9.61
2023-04-30T07:08:01.305Z,9.54
2023-04-30T07:10:27.835Z,9.73
2023-04-30T07:12:54.370Z,9.78
2023-04-30T07:15:20.909Z,9.52
2023-04-30T07:17:47.535Z,9.27
2023-04-30T07:20:17.544Z,9.40
2023-04-30T07:22:45.875Z,9.00
2023-04-30T07:25:13.595Z,8.95
2023-04-30T07:27:40.873Z,9.25
2023-04-30T07:30:11.256Z,9.63
2023-04-30T07:32:39.716Z,9.93
2023-04-30T07:35:06.593Z,9.66
2023-04-30T07:37:35.461Z,9.05
2023-04-30T07:40:03.907Z,9.37
2023-04-30T07:42:30.492Z,9.59
2023-04-30T07:44:57.371Z,10.23
2023-04-30T07:47:23.976Z,10.09
2023-04-30T07:49:50.866Z,9.99
2023-04-30T07:52:17.505Z,10.07
2023-04-30T07:54:44.096Z,10.15
2023-04-30T07:57:11.021Z,9.88
2023-04-30T07:59:37.815Z,10.03
2023-04-30T08:02:04.448Z,9.97
2023-04-30T08:04:31.164Z,10.22
2023-04-30T08:06:57.785Z,9.84
2023-04-30T08:09:24.390Z,9.64
2023-04-30T08:11:51.088Z,9.91
2023-04-30T08:14:17.715Z,9.84
2023-04-30T08:16:44.245Z,9.81
2023-04-30T08:19:10.932Z,10.01
2023-04-30T08:21:38.032Z,9.49
2023-04-30T08:24:04.706Z,9.26
2023-04-30T08:26:31.264Z,8.76
2023-04-30T08:28:57.760Z,8.92
2023-04-30T08:31:24.484Z,9.11
2023-04-30T08:33:51.088Z,8.42
2023-04-30T08:36:17.615Z,8.54
2023-04-30T08:38:44.138Z,8.55
2023-04-30T08:41:14.870Z,8.35
2023-04-30T08:43:42.351Z,8.23
2023-04-30T08:46:09.633Z,8.29
2023-04-30T08:48:36.239Z,7.85
2023-04-30T08:51:04.503Z,7.29
2023-04-30T08:53:35.305Z,7.24
2023-04-30T08:56:01.959Z,7.48
2023-04-30T08:58:28.480Z,7.29
2023-04-30T09:00:55.068Z,6.54
2023-04-30T09:03:23.700Z,6.45
2023-04-30T09:05:50.454Z,7.05
2023-04-30T09:08:19.541Z,6.65
2023-04-30T09:10:46.478Z,6.26
2023-04-30T09:13:13.893Z,6.24
2023-04-30T09:15:41.680Z,6.02
2023-04-30T09:18:18.146Z,6.55
2023-04-30T09:21:01.139Z,6.06
2023-04-30T09:23:27.847Z,5.82
2023-04-30T09:25:54.461Z,5.92
2023-04-30T09:28:25.312Z,5.99
2023-04-30T09:30:52.925Z,5.88
2023-04-30T09:33:20.327Z,5.73
2023-04-30T09:35:46.911Z,5.49
2023-04-30T09:38:30.611Z,5.86
2023-04-30T09:41:01.624Z,5.59
2023-04-30T09:43:29.622Z,5.18
2023-04-30T09:45:58.630Z,5.45
2023-04-30T09:48:28.375Z,5.15
2023-04-30T09:50:55.687Z,5.26
2023-04-30T09:53:23.678Z,5.15
2023-04-30T09:55:51.439Z,5.30
2023-04-30T09:58:19.656Z,5.49
2023-04-30T10:00:48.182Z,5.11
2023-04-30T10:03:16.549Z,5.07
2023-04-30T10:05:48.995Z,5.19
2023-04-30T10:08:32.052Z,5.19
2023-04-30T10:11:03.070Z,5.19
2023-04-30T10:13:33.503Z,5.26
2023-04-30T10:16:07.668Z,5.18
2023-04-30T10:18:37.572Z,5.16
2023-04-30T10:21:11.970Z,5.10
2023-04-30T10:23:43.659Z,5.28
2023-04-30T10:26:13.889Z,5.22
2023-04-30T10:28:40.925Z,5.17
2023-04-30T10:31:10.834Z,4.96
2023-04-30T10:34:12.414Z,5.09
2023-04-30T10:36:44.805Z,5.14
2023-04-30T10:39:13.115Z,4.82
2023-04-30T10:41:40.161Z,5.03
2023-04-30T10:44:07.917Z,5.05
2023-04-30T10:46:35.778Z,4.87
2023-04-30T10:49:02.674Z,4.91
2023-04-30T10:51:54.236Z,4.82
2023-04-30T10:54:30.108Z,4.61
2023-04-30T10:57:13.292Z,5.21
2023-04-30T10:59:45.240Z,5.00
2023-04-30T11:02:15.567Z,4.57
2023-04-30T11:05:20.784Z,4.94
2023-04-30T11:07:52.267Z,4.94
2023-04-30T11:10:23.513Z,5.25
2023-04-30T11:12:51.731Z,5.21
2023-04-30T11:15:20.499Z,4.65
2023-04-30T11:17:49.857Z,4.84
2023-04-30T11:20:42.226Z,4.81
2023-04-30T11:23:17.404Z,4.72
2023-04-30T11:25:48.886Z,4.83
2023-04-30T11:28:24.497Z,5.00
2023-04-30T11:30:56.039Z,4.26
2023-04-30T11:33:25.626Z,4.48
2023-04-30T11:35:53.206Z,4.16
2023-04-30T11:38:30.630Z,4.48
2023-04-30T11:40:58.280Z,4.50
2023-04-30T11:43:27.200Z,4.47
2023-04-30T11:46:17.957Z,4.50
2023-04-30T11:48:46.271Z,4.49
2023-04-30T11:51:21.538Z,4.57
2023-04-30T11:53:50.064Z,4.15
2023-04-30T11:56:21.350Z,4.39
2023-04-30T11:58:49.212Z,4.79
2023-04-30T12:01:16.622Z,4.35
2023-04-30T12:03:43.937Z,4.48
2023-04-30T12:06:31.991Z,3.97
2023-04-30T12:09:01.540Z,4.29
2023-04-30T12:11:29.759Z,4.19
2023-04-30T12:14:00.843Z,4.50
2023-04-30T12:16:37.814Z,4.39
2023-04-30T12:19:04.439Z,4.03
2023-04-30T12:21:31.285Z,3.99
2023-04-30T12:23:57.882Z,3.68
2023-04-30T12:26:24.591Z,3.91
2023-04-30T12:28:52.532Z,3.68
2023-04-30T12:31:19.128Z,4.00
2023-04-30T12:33:53.922Z,3.98
2023-04-30T12:36:20.704Z,3.93
2023-04-30T12:38:47.324Z,3.82
2023-04-30T12:41:15.276Z,3.84
2023-04-30T12:43:41.910Z,3.88
2023-04-30T12:46:08.594Z,3.71
2023-04-30T12:48:44.939Z,3.77
2023-04-30T12:51:11.603Z,3.85
2023-04-30T12:53:47.453Z,3.44
2023-04-30T12:56:16.654Z,3.47
2023-04-30T12:58:47.213Z,3.49
2023-04-30T13:01:17.016Z,3.49
2023-04-30T13:03:43.845Z,3.35
2023-04-30T13:06:10.668Z,3.55
2023-04-30T13:08:45.700Z,3.56
2023-04-30T13:11:24.244Z,2.47
2023-04-30T13:13:51.016Z,2.25
2023-04-30T13:16:17.607Z,2.38
2023-04-30T13:18:44.764Z,2.56
2023-04-30T13:21:11.420Z,2.59
2023-04-30T13:23:44.915Z,2.58
2023-04-30T13:26:19.021Z,2.16
2023-04-30T13:28:45.595Z,1.85
2023-04-30T13:31:12.216Z,2.67
2023-04-30T13:33:38.910Z,2.72
2023-04-30T13:36:05.929Z,2.44
2023-04-30T13:38:32.531Z,2.36
2023-04-30T13:40:59.124Z,2.42
2023-04-30T13:43:25.732Z,2.40
2023-04-30T13:45:52.436Z,1.94
2023-04-30T13:48:18.995Z,1.74
2023-04-30T13:50:45.888Z,1.49
2023-04-30T13:53:12.594Z,1.52
2023-04-30T13:55:39.174Z,1.40
2023-04-30T13:58:05.848Z,1.71
2023-04-30T14:00:32.434Z,1.78
2023-04-30T14:02:59.119Z,1.81
2023-04-30T14:05:25.765Z,1.82
2023-04-30T14:07:52.377Z,2.16
2023-04-30T14:10:19.002Z,2.20
2023-04-30T14:12:45.490Z,2.18
2023-04-30T14:15:12.104Z,1.70
2023-04-30T14:17:38.753Z,1.42
2023-04-30T14:20:06.105Z,1.55
2023-04-30T14:22:34.557Z,1.72
2023-04-30T14:25:01.263Z,1.85
2023-04-30T14:27:27.769Z,1.73
2023-04-30T14:29:54.646Z,1.61
2023-04-30T14:32:21.551Z,1.73
2023-04-30T14:34:48.190Z,1.78
2023-04-30T14:37:15.520Z,1.76
2023-04-30T14:39:42.764Z,1.72
2023-04-30T14:42:09.966Z,2.02
2023-04-30T14:44:40.425Z,1.79
2023-04-30T14:47:07.026Z,1.57
2023-04-30T14:49:33.644Z,1.50
2023-04-30T14:52:00.163Z,1.41
2023-04-30T14:54:26.780Z,1.60
2023-04-30T14:56:53.356Z,1.49
2023-04-30T14:59:19.934Z,1.43
2023-04-30T15:01:46.652Z,1.50
2023-04-30T15:04:13.237Z,1.53
2023-04-30T15:06:40.089Z,1.54
2023-04-30T15:09:06.983Z,1.54
2023-04-30T15:11:33.514Z,1.43
2023-04-30T15:14:00.074Z,1.54
2023-04-30T15:16:26.816Z,1.47
2023-04-30T15:18:54.245Z,1.40
2023-04-30T15:21:20.815Z,1.38
2023-04-30T15:23:47.739Z,1.32
2023-04-30T15:26:14.329Z,1.41
2023-04-30T15:28:40.973Z,1.24
2023-04-30T15:31:07.638Z,1.28
2023-04-30T15:33:39.368Z,1.39
2023-04-30T15:36:06.191Z,1.37
2023-04-30T15:38:32.770Z,1.20
2023-04-30T15:40:59.294Z,1.19
2023-04-30T15:43:26.029Z,1.20
2023-04-30T15:45:52.731Z,1.33
2023-04-30T15:48:19.259Z,1.16
2023-04-30T15:50:45.814Z,1.33
2023-04-30T15:53:12.376Z,1.34
2023-04-30T15:55:38.937Z,1.26
2023-04-30T15:58:05.934Z,1.26
2023-04-30T16:00:33.652Z,1.30
2023-04-30T16:03:00.472Z,1.17
2023-04-30T16:05:27.305Z,1.22
2023-04-30T16:07:54.530Z,1.50
2023-04-30T16:10:21.500Z,1.49
2023-04-30T16:12:48.626Z,1.39
2023-04-30T16:15:15.304Z,1.33
2023-04-30T16:17:41.877Z,1.56
2023-04-30T16:20:08.820Z,1.44
2023-04-30T16:22:35.496Z,1.63
2023-04-30T16:25:02.086Z,1.48
2023-04-30T16:27:28.608Z,1.58
2023-04-30T16:29:55.442Z,1.59
2023-04-30T16:32:22.250Z,1.51
2023-04-30T16:34:49.123Z,1.66
2023-04-30T16:37:15.767Z,1.62
2023-04-30T16:39:42.544Z,1.57
2023-04-30T16:42:09.255Z,1.74
2023-04-30T16:44:35.791Z,1.63
2023-04-30T16:47:02.636Z,1.74
2023-04-30T16:49:29.154Z,1.67
2023-04-30T16:51:55.735Z,1.39
2023-04-30T16:54:22.446Z,1.75
2023-04-30T16:56:48.952Z,1.59
2023-04-30T16:59:15.609Z,1.44
2023-04-30T17:01:42.239Z,1.62
2023-04-30T17:04:08.849Z,1.53
2023-04-30T17:06:35.744Z,1.52
2023-04-30T17:09:02.349Z,1.44
2023-04-30T17:11:29.002Z,1.43
2023-04-30T17:13:55.887Z,1.32
2023-04-30T17:16:22.434Z,1.51
2023-04-30T17:18:49.101Z,1.63
2023-04-30T17:21:16.085Z,1.61
2023-04-30T17:23:42.781Z,1.75
2023-04-30T17:26:09.599Z,1.59
2023-04-30T17:28:37.416Z,1.52
2023-04-30T17:31:06.984Z,1.52
2023-04-30T17:33:33.942Z,1.53
2023-04-30T17:36:00.508Z,1.68
2023-04-30T17:38:27.168Z,1.72
2023-04-30T17:40:54.229Z,1.76
2023-04-30T17:43:20.753Z,1.47
2023-04-30T17:45:47.494Z,1.52
2023-04-30T17:48:14.140Z,1.65
2023-04-30T17:50:41.183Z,1.54
2023-04-30T17:53:07.816Z,1.50
2023-04-30T17:55:34.379Z,1.66
2023-04-30T17:58:00.983Z,1.67
2023-04-30T18:00:27.509Z,1.63
2023-04-30T18:02:54.319Z,1.74
2023-04-30T18:05:20.966Z,1.86
2023-04-30T18:07:48.575Z,1.87
2023-04-30T18:10:15.277Z,1.71
2023-04-30T18:12:41.890Z,1.87
2023-04-30T18:15:08.721Z,1.90
2023-04-30T18:17:37.232Z,2.04
2023-04-30T18:20:04.699Z,2.04
2023-04-30T18:22:31.988Z,1.99
2023-04-30T18:24:58.691Z,1.96
2023-04-30T18:27:25.270Z,2.05
2023-04-30T18:29:52.185Z,2.05
2023-04-30T18:32:19.026Z,2.26
2023-04-30T18:34:46.053Z,2.41
2023-04-30T18:37:12.591Z,2.35
2023-04-30T18:39:39.136Z,2.30
2023-04-30T18:42:05.787Z,2.50
2023-04-30T18:44:32.470Z,2.53
2023-04-30T18:46:59.073Z,2.43
2023-04-30T18:49:25.917Z,2.52
2023-04-30T18:51:54.980Z,2.40
2023-04-30T18:54:22.019Z,2.42
2023-04-30T18:56:48.662Z,2.38
2023-04-30T18:59:15.624Z,2.49
2023-04-30T19:01:42.617Z,2.82
2023-04-30T19:04:13.561Z,2.65
2023-04-30T19:06:40.241Z,2.78
2023-04-30T19:09:07.055Z,2.79
2023-04-30T19:11:35.580Z,2.49
2023-04-30T19:14:02.330Z,2.51
2023-04-30T19:16:28.876Z,2.54
2023-04-30T19:18:55.585Z,2.43
2023-04-30T19:21:23.480Z,2.75
2023-04-30T19:23:50.060Z,2.63
2023-04-30T19:26:16.678Z,2.52
2023-04-30T19:28:43.338Z,2.47
2023-04-30T19:31:12.837Z,2.43
2023-04-30T19:33:40.984Z,2.67
2023-04-30T19:36:07.488Z,2.66
2023-04-30T19:38:33.995Z,2.65
2023-04-30T19:41:01.026Z,2.84
2023-04-30T19:43:27.606Z,3.02
2023-04-30T19:45:56.473Z,3.30
2023-04-30T19:48:24.179Z,3.52
2023-04-30T19:50:53.556Z,3.52
2023-04-30T19:53:21.401Z,3.51
2023-04-30T19:55:48.151Z,3.53
2023-04-30T19:58:14.876Z,3.60
2023-04-30T20:00:44.322Z,3.67
2023-04-30T20:03:11.738Z,3.81
2023-04-30T20:05:42.702Z,4.09
2023-04-30T20:08:09.594Z,4.09
2023-04-30T20:10:38.056Z,4.48
2023-04-30T20:13:05.907Z,4.90
2023-04-30T20:15:33.212Z,4.17
2023-04-30T20:18:05.607Z,4.03
2023-04-30T20:20:32.394Z,4.33
2023-04-30T20:22:59.037Z,4.25
2023-04-30T20:25:25.899Z,4.44
2023-04-30T20:27:52.430Z,4.49
2023-04-30T20:30:20.824Z,4.55
2023-04-30T20:32:47.819Z,4.74
2023-04-30T20:35:14.514Z,4.63
2023-04-30T20:37:41.119Z,4.49
2023-04-30T20:40:08.557Z,4.97
2023-04-30T20:42:35.125Z,5.00
2023-04-30T20:45:04.631Z,4.80
2023-04-30T20:47:32.190Z,4.98
2023-04-30T20:49:58.981Z,5.21
2023-04-30T20:52:26.064Z,5.13
2023-04-30T20:54:52.741Z,5.69
2023-04-30T20:57:19.321Z,5.93
2023-04-30T20:59:45.904Z,5.67
2023-04-30T21:02:12.574Z,5.46
2023-04-30T21:04:39.187Z,5.66
2023-04-30T21:07:05.843Z,5.52
2023-04-30T21:09:34.515Z,5.40
2023-04-30T21:12:05.015Z,5.78
2023-04-30T21:14:32.174Z,5.45
2023-04-30T21:16:59.398Z,6.15
2023-04-30T21:19:26.703Z,6.00
2023-04-30T21:21:53.275Z,6.17
2023-04-30T21:24:19.868Z,5.98
2023-04-30T21:26:46.660Z,6.46
2023-04-30T21:29:13.279Z,6.70
2023-04-30T21:31:39.836Z,6.21
2023-04-30T21:34:06.402Z,6.44
2023-04-30T21:36:33.010Z,6.10
2023-04-30T21:39:00.234Z,6.35
2023-04-30T21:41:28.086Z,6.40
2023-04-30T21:43:54.959Z,6.34
2023-04-30T21:46:22.771Z,6.17
2023-04-30T21:48:49.504Z,6.31
2023-04-30T21:51:17.115Z,6.39
2023-04-30T21:53:44.386Z,6.20
2023-04-30T21:56:11.669Z,6.17
2023-04-30T21:58:39.136Z,5.85
2023-04-30T22:01:05.879Z,6.13
2023-04-30T22:03:33.367Z,6.12
2023-04-30T22:06:00.703Z,5.66
2023-04-30T22:08:27.877Z,5.84
2023-04-30T22:10:58.906Z,5.61
2023-04-30T22:13:29.432Z,5.52
2023-04-30T22:15:56.563Z,5.33
2023-04-30T22:18:24.354Z,5.45
2023-04-30T22:20:52.262Z,5.49
2023-04-30T22:23:21.058Z,5.73
2023-04-30T22:25:48.212Z,5.82
2023-04-30T22:28:16.940Z,5.56
2023-04-30T22:30:43.821Z,5.57
2023-04-30T22:33:10.515Z,5.69
2023-04-30T22:35:40.513Z,5.84
2023-04-30T22:38:08.046Z,5.59
2023-04-30T22:40:37.804Z,5.23
2023-04-30T22:43:05.138Z,5.52
2023-04-30T22:45:32.681Z,5.47
2023-04-30T22:48:01.557Z,5.25
2023-04-30T22:50:30.780Z,5.46
2023-04-30T22:52:57.848Z,5.09
2023-04-30T22:55:25.020Z,5.41
2023-04-30T22:57:51.629Z,5.32
2023-04-30T23:00:19.096Z,5.43
2023-04-30T23:02:46.020Z,5.19
2023-04-30T23:05:12.844Z,5.25
2023-04-30T23:07:39.591Z,5.33
2023-04-30T23:10:06.477Z,5.27
2023-04-30T23:12:33.022Z,5.28
2023-04-30T23:14:59.522Z,5.56
2023-04-30T23:17:26.750Z,5.81
2023-04-30T23:19:53.605Z,5.50
2023-04-30T23:22:20.227Z,5.45
2023-04-30T23:24:46.802Z,5.53
2023-04-30T23:27:13.395Z,5.24
2023-04-30T23:29:39.925Z,5.51
2023-04-30T23:32:06.585Z,5.61
2023-04-30T23:34:33.169Z,5.56
2023-04-30T23:36:59.861Z,5.72
2023-04-30T23:39:26.431Z,5.62
2023-04-30T23:41:53.131Z,5.53
2023-04-30T23:44:20.471Z,5.59
2023-04-30T23:46:48.306Z,5.56
2023-04-30T23:49:16.476Z,5.49
2023-04-30T23:51:43.010Z,5.48
2023-04-30T23:54:09.589Z,5.51
2023-04-30T23:56:37.394Z,5.65
2023-04-30T23:59:04.203Z,5.76
